Time;durP1;ratioP1;P1;durP2;ratioP2;P2;SDS_P1;SDS_P2;PMS_P1;PMS_P2;Temp;Humidity;BMP_temperature;BMP_pressure;BME280_temperature;BME280_humidity;BME280_pressure;Samples;Min_cycle;Max_cycle;Signal;HPM_P1;HPM_P2
2024/04/03 00:00:31;;;;;;;6.70;1.08;;;;;;;;;;5071414;28;20217;-69
2024/04/03 00:02:56;;;;;;;0.52;0.52;;;;;;;;;;5071538;28;20490;-69
2024/04/03 00:05:22;;;;;;;2.10;0.70;;;;;;;;;;5071473;28;20032;-68
2024/04/03 00:07:48;;;;;;;0.43;0.40;;;;;;;;;;5071177;28;20028;-68
2024/04/03 00:10:13;;;;;;;0.93;0.70;;;;;;;;;;5089938;28;20032;-70
2024/04/03 00:12:39;;;;;;;2.00;0.50;;;;;;;;;;5089271;28;20107;-69
2024/04/03 00:15:05;;;;;;;1.63;0.55;;;;;;;;;;5054677;28;20036;-69
2024/04/03 00:17:31;;;;;;;2.83;0.90;;;;;;;;;;5071253;28;20036;-68
2024/04/03 00:19:56;;;;;;;0.88;0.68;;;;;;;;;;5071201;28;20164;-68
2024/04/03 00:22:22;;;;;;;1.70;1.13;;;;;;;;;;5071298;28;20028;-70
2024/04/03 00:24:48;;;;;;;0.90;0.82;;;;;;;;;;5071120;28;20115;-69
2024/04/03 00:27:13;;;;;;;2.42;0.55;;;;;;;;;;5071376;28;20036;-69
2024/04/03 00:29:39;;;;;;;2.92;0.90;;;;;;;;;;5089551;28;20047;-68
2024/04/03 00:32:05;;;;;;;2.45;0.88;;;;;;;;;;5071440;28;20066;-68
2024/04/03 00:34:30;;;;;;;0.95;0.82;;;;;;;;;;5089682;28;20467;-72
2024/04/03 00:36:56;;;;;;;2.00;1.17;;;;;;;;;;5071613;28;20312;-69
2024/04/03 00:39:22;;;;;;;1.80;0.77;;;;;;;;;;5071191;28;20020;-70
2024/04/03 00:41:47;;;;;;;1.05;0.50;;;;;;;;;;5089273;28;20020;-69
2024/04/03 00:44:13;;;;;;;1.95;0.60;;;;;;;;;;5071081;28;20100;-69
2024/04/03 00:46:39;;;;;;;3.60;0.77;;;;;;;;;;5071124;28;20059;-69
2024/04/03 00:49:04;;;;;;;2.67;0.60;;;;;;;;;;5071340;28;20368;-68
2024/04/03 00:51:31;;;;;;;0.40;0.40;;;;;;;;;;5071524;28;20039;-68
2024/04/03 00:53:56;;;;;;;0.95;0.55;;;;;;;;;;5089594;28;20076;-69
2024/04/03 00:56:24;;;;;;;2.17;0.68;;;;;;;;;;5071259;28;20024;-69
2024/04/03 00:58:51;;;;;;;1.10;0.70;;;;;;;;;;5089701;28;20035;-69
2024/04/03 01:01:16;;;;;;;2.83;0.90;;;;;;;;;;5093437;28;20185;-69
2024/04/03 01:03:42;;;;;;;0.88;0.60;;;;;;;;;;5074181;28;20516;-70
2024/04/03 01:06:08;;;;;;;1.70;0.47;;;;;;;;;;5074492;28;20478;-69
2024/04/03 01:08:34;;;;;;;1.10;0.60;;;;;;;;;;5074208;28;20526;-69
2024/04/03 01:11:00;;;;;;;1.77;0.63;;;;;;;;;;5092980;28;20062;-67
2024/04/03 01:13:27;;;;;;;2.25;0.90;;;;;;;;;;5057977;28;20523;-68
2024/04/03 01:16:04;;;;;;;1.33;0.63;;;;;;;;;;5074457;28;20039;-70
2024/04/03 01:18:31;;;;;;;1.33;0.77;;;;;;;;;;5057996;28;20405;-70
2024/04/03 01:20:57;;;;;;;1.60;0.85;;;;;;;;;;5074327;28;20024;-68
2024/04/03 01:23:23;;;;;;;2.53;0.50;;;;;;;;;;5074493;28;20494;-69
2024/04/03 01:25:49;;;;;;;1.95;0.88;;;;;;;;;;5074224;28;20032;-69
2024/04/03 01:28:16;;;;;;;2.03;0.77;;;;;;;;;;5074458;28;20485;-69
2024/04/03 01:30:41;;;;;;;4.93;0.77;;;;;;;;;;5074367;28;20381;-70
2024/04/03 01:33:07;;;;;;;2.05;0.63;;;;;;;;;;5092841;28;20044;-70
2024/04/03 01:35:33;;;;;;;2.17;0.70;;;;;;;;;;5092836;28;20031;-70
2024/04/03 01:37:58;;;;;;;2.20;0.80;;;;;;;;;;5073878;28;20097;-69
2024/04/03 01:40:24;;;;;;;2.08;0.95;;;;;;;;;;5074283;28;20020;-70
2024/04/03 01:42:50;;;;;;;1.20;0.75;;;;;;;;;;5092127;28;20107;-68
2024/04/03 01:45:16;;;;;;;0.95;0.45;;;;;;;;;;5074217;28;20066;-69
2024/04/03 01:47:42;;;;;;;2.60;0.60;;;;;;;;;;5092009;28;20027;-70
2024/04/03 01:50:08;;;;;;;2.33;0.50;;;;;;;;;;5074042;28;20023;-70
2024/04/03 01:52:33;;;;;;;3.17;0.60;;;;;;;;;;5092339;28;20103;-69
2024/04/03 01:54:59;;;;;;;3.10;0.63;;;;;;;;;;5092368;28;20030;-69
2024/04/03 01:57:24;;;;;;;2.75;1.10;;;;;;;;;;5074069;28;20028;-69
2024/04/03 01:59:50;;;;;;;1.67;0.98;;;;;;;;;;5073647;28;20356;-69
2024/04/03 02:02:15;;;;;;;1.70;0.60;;;;;;;;;;5074158;28;20566;-69
2024/04/03 02:04:41;;;;;;;4.22;0.63;;;;;;;;;;5073837;28;20024;-70
2024/04/03 02:07:08;;;;;;;1.48;0.55;;;;;;;;;;5073850;28;20126;-70
2024/04/03 02:09:36;;;;;;;4.78;0.77;;;;;;;;;;5073917;28;20085;-70
2024/04/03 02:12:03;;;;;;;5.40;0.75;;;;;;;;;;5093013;28;20043;-70
2024/04/03 02:14:29;;;;;;;2.90;0.70;;;;;;;;;;5075562;28;20113;-69
2024/04/03 02:16:55;;;;;;;1.67;0.90;;;;;;;;;;5093569;28;20055;-68
2024/04/03 02:19:21;;;;;;;2.65;1.13;;;;;;;;;;5094168;28;20157;-69
2024/04/03 02:21:48;;;;;;;2.87;0.70;;;;;;;;;;5076547;28;20036;-68
2024/04/03 02:24:13;;;;;;;1.08;0.80;;;;;;;;;;5074183;28;20054;-70
2024/04/03 02:26:39;;;;;;;3.72;1.20;;;;;;;;;;5091589;28;20452;-69
2024/04/03 02:29:04;;;;;;;3.10;0.95;;;;;;;;;;5074462;28;20028;-67
2024/04/03 02:31:30;;;;;;;2.47;0.85;;;;;;;;;;5074205;28;20031;-69
2024/04/03 02:33:56;;;;;;;5.65;1.23;;;;;;;;;;5073732;28;20197;-69
2024/04/03 02:36:22;;;;;;;2.20;0.98;;;;;;;;;;5073581;28;20433;-70
2024/04/03 02:38:50;;;;;;;0.70;0.70;;;;;;;;;;5092274;28;20046;-69
2024/04/03 02:41:16;;;;;;;2.03;0.90;;;;;;;;;;5073793;28;20027;-68
2024/04/03 02:43:42;;;;;;;2.72;1.05;;;;;;;;;;5073405;28;20148;-69
2024/04/03 02:46:08;;;;;;;0.65;0.60;;;;;;;;;;5091425;28;20045;-69
2024/04/03 02:48:34;;;;;;;1.95;1.05;;;;;;;;;;5072491;28;20030;-69
2024/04/03 02:51:01;;;;;;;3.40;0.80;;;;;;;;;;5072365;28;20119;-69
2024/04/03 02:53:27;;;;;;;1.33;0.70;;;;;;;;;;5073502;28;20035;-68
2024/04/03 02:55:52;;;;;;;2.20;1.17;;;;;;;;;;5074124;28;20126;-69
2024/04/03 02:58:18;;;;;;;0.73;0.70;;;;;;;;;;5072993;28;20038;-69
2024/04/03 03:00:43;;;;;;;2.38;0.75;;;;;;;;;;5072200;28;20043;-69
2024/04/03 03:03:09;;;;;;;2.67;0.73;;;;;;;;;;5090385;28;20036;-70
2024/04/03 03:05:35;;;;;;;1.00;0.70;;;;;;;;;;5090499;28;20124;-70
2024/04/03 03:08:02;;;;;;;2.10;0.73;;;;;;;;;;5090416;28;20028;-67
2024/04/03 03:10:28;;;;;;;3.95;0.85;;;;;;;;;;5090155;28;20114;-69
2024/04/03 03:12:58;;;;;;;4.78;0.80;;;;;;;;;;5068621;28;20469;-70
2024/04/03 03:15:25;;;;;;;8.48;1.20;;;;;;;;;;5068683;28;20107;-70
2024/04/03 03:17:50;;;;;;;4.32;1.05;;;;;;;;;;5068519;28;20185;-70
2024/04/03 03:20:16;;;;;;;3.15;0.60;;;;;;;;;;5069912;28;20115;-68
2024/04/03 03:22:41;;;;;;;3.33;0.75;;;;;;;;;;5068376;28;20666;-68
2024/04/03 03:25:07;;;;;;;1.33;0.90;;;;;;;;;;5068702;28;20361;-68
2024/04/03 03:27:32;;;;;;;1.55;0.60;;;;;;;;;;5070206;28;20036;-70
2024/04/03 03:29:58;;;;;;;2.83;1.02;;;;;;;;;;5069884;28;20115;-67
2024/04/03 03:32:23;;;;;;;2.25;0.80;;;;;;;;;;5069939;28;20028;-70
2024/04/03 03:34:49;;;;;;;5.17;0.70;;;;;;;;;;5068103;28;20409;-70
2024/04/03 03:37:14;;;;;;;1.05;0.80;;;;;;;;;;5069765;28;20036;-71
2024/04/03 03:39:42;;;;;;;1.90;0.90;;;;;;;;;;5069321;28;20025;-69
2024/04/03 03:42:08;;;;;;;3.33;0.90;;;;;;;;;;5069551;28;20062;-70
2024/04/03 03:44:33;;;;;;;3.23;0.93;;;;;;;;;;5069824;28;20060;-71
2024/04/03 03:46:59;;;;;;;3.00;0.90;;;;;;;;;;5069220;28;20027;-69
2024/04/03 03:54:59;;;;;;;2.43;0.93;;;;;;;;;;5089902;28;20087;-70
2024/04/03 03:57:25;;;;;;;3.57;0.83;;;;;;;;;;5071777;28;20031;-70
2024/04/03 03:59:50;;;;;;;6.10;1.33;;;;;;;;;;5089878;28;20525;-69
2024/04/03 04:02:16;;;;;;;5.17;1.40;;;;;;;;;;5072006;28;20483;-69
2024/04/03 04:04:41;;;;;;;1.37;0.97;;;;;;;;;;5090099;28;20492;-69
2024/04/03 04:07:07;;;;;;;4.00;0.87;;;;;;;;;;5071378;28;20032;-69
2024/04/03 04:09:32;;;;;;;4.23;0.80;;;;;;;;;;5089834;28;20229;-70
2024/04/03 04:11:58;;;;;;;4.33;0.93;;;;;;;;;;5071138;28;20032;-70
2024/04/03 04:14:23;;;;;;;1.15;0.60;;;;;;;;;;5089790;28;20024;-68
2024/04/03 04:16:49;;;;;;;3.83;1.10;;;;;;;;;;5071594;28;20660;-70
2024/04/03 04:19:14;;;;;;;1.27;0.70;;;;;;;;;;5071607;28;20083;-69
2024/04/03 04:21:41;;;;;;;4.10;0.97;;;;;;;;;;5071704;28;20039;-69
2024/04/03 04:24:07;;;;;;;1.37;0.80;;;;;;;;;;5071095;28;20066;-69
2024/04/03 04:26:33;;;;;;;4.23;1.10;;;;;;;;;;5089404;28;20032;-69
2024/04/03 04:29:00;;;;;;;8.50;1.40;;;;;;;;;;5089332;28;20447;-70
2024/04/03 04:31:26;;;;;;;2.50;1.57;;;;;;;;;;5071226;28;20032;-71
2024/04/03 04:33:51;;;;;;;5.63;1.60;;;;;;;;;;5071114;28;20357;-69
2024/04/03 04:36:17;;;;;;;4.23;1.80;;;;;;;;;;5074712;28;20459;-68
2024/04/03 04:38:42;;;;;;;6.77;1.10;;;;;;;;;;5093282;28;20040;-70
2024/04/03 04:41:08;;;;;;;2.30;1.27;;;;;;;;;;5093185;28;20034;-70
2024/04/03 04:43:33;;;;;;;6.03;1.23;;;;;;;;;;5075363;28;20036;-69
2024/04/03 04:46:03;;;;;;;6.80;1.47;;;;;;;;;;5075141;28;20019;-68
2024/04/03 04:48:31;;;;;;;2.53;0.83;;;;;;;;;;5075234;28;20097;-71
2024/04/03 04:50:59;;;;;;;5.70;0.85;;;;;;;;;;5093179;28;20377;-69
2024/04/03 04:53:25;;;;;;;2.67;0.80;;;;;;;;;;5074257;28;20032;-69
2024/04/03 04:56:05;;;;;;;4.20;1.37;;;;;;;;;;5073808;28;20062;-69
2024/04/03 04:58:31;;;;;;;6.83;1.63;;;;;;;;;;5074499;28;20032;-68
2024/04/03 05:01:02;;;;;;;1.73;1.10;;;;;;;;;;5092499;28;20430;-70
2024/04/03 05:03:27;;;;;;;2.07;0.90;;;;;;;;;;5075867;28;20031;-68
2024/04/03 05:05:53;;;;;;;2.17;1.53;;;;;;;;;;5093016;28;20119;-69
2024/04/03 05:08:19;;;;;;;1.83;1.42;;;;;;;;;;5093459;28;20020;-68
2024/04/03 05:10:52;;;;;;;2.95;1.42;;;;;;;;;;5092785;28;20103;-69
2024/04/03 05:13:19;;;;;;;7.07;1.37;;;;;;;;;;5074322;28;20035;-70
2024/04/03 05:15:46;;;;;;;10.13;1.33;;;;;;;;;;5057710;28;20055;-69
2024/04/03 05:18:12;;;;;;;5.87;1.50;;;;;;;;;;5092727;28;20028;-70
2024/04/03 05:20:38;;;;;;;2.80;0.73;;;;;;;;;;5092448;28;20749;-70
2024/04/03 05:23:05;;;;;;;1.20;0.80;;;;;;;;;;5092514;28;20481;-68
2024/04/03 05:25:30;;;;;;;4.88;0.80;;;;;;;;;;5092558;28;20093;-69
2024/04/03 05:27:56;;;;;;;4.78;1.13;;;;;;;;;;5092197;28;20227;-69
2024/04/03 05:30:21;;;;;;;5.55;1.10;;;;;;;;;;5073339;28;20074;-69
2024/04/03 05:32:47;;;;;;;2.83;0.80;;;;;;;;;;5073378;28;20044;-73
2024/04/03 05:35:15;;;;;;;3.53;0.88;;;;;;;;;;5091657;28;20028;-69
2024/04/03 05:37:41;;;;;;;5.95;1.73;;;;;;;;;;5092353;28;20054;-68
2024/04/03 05:40:07;;;;;;;3.72;0.95;;;;;;;;;;5073686;28;20530;-70
2024/04/03 05:42:32;;;;;;;6.40;1.27;;;;;;;;;;5088450;28;20458;-72
2024/04/03 05:44:58;;;;;;;9.45;3.65;;;;;;;;;;5076444;28;20067;-70
2024/04/03 05:47:24;;;;;;;2.45;0.82;;;;;;;;;;5069816;28;20436;-68
2024/04/03 05:49:53;;;;;;;6.88;1.20;;;;;;;;;;5069083;28;20059;-70
2024/04/03 05:52:19;;;;;;;2.80;0.98;;;;;;;;;;5087623;28;20124;-69
2024/04/03 05:54:46;;;;;;;3.40;0.70;;;;;;;;;;5066112;28;20064;-70
2024/04/03 05:57:13;;;;;;;5.47;0.98;;;;;;;;;;5066886;28;20048;-70
2024/04/03 05:59:38;;;;;;;2.28;0.75;;;;;;;;;;5078952;28;20717;-68
2024/04/03 06:02:04;;;;;;;2.22;0.75;;;;;;;;;;5058388;28;20043;-70
2024/04/03 06:04:29;;;;;;;4.07;1.17;;;;;;;;;;5069513;28;20673;-71
2024/04/03 06:06:56;;;;;;;2.35;1.08;;;;;;;;;;5053420;28;20062;-69
2024/04/03 06:09:22;;;;;;;4.68;0.80;;;;;;;;;;5065914;28;20028;-71
2024/04/03 06:11:49;;;;;;;4.32;0.63;;;;;;;;;;5060824;28;20467;-69
2024/04/03 06:14:14;;;;;;;4.43;0.82;;;;;;;;;;5076271;28;20027;-72
2024/04/03 06:16:40;;;;;;;5.97;1.00;;;;;;;;;;5075852;28;20114;-68
2024/04/03 06:19:09;;;;;;;3.10;0.63;;;;;;;;;;5059867;28;20670;-69
2024/04/03 06:21:35;;;;;;;7.53;0.88;;;;;;;;;;5063672;28;20056;-68
2024/04/03 06:24:04;;;;;;;1.10;1.00;;;;;;;;;;5060468;28;20800;-70
2024/04/03 06:26:30;;;;;;;5.57;1.50;;;;;;;;;;5073323;28;20051;-68
2024/04/03 06:28:55;;;;;;;5.55;1.17;;;;;;;;;;5073569;28;20440;-69
2024/04/03 06:31:21;;;;;;;3.40;0.80;;;;;;;;;;5087718;28;20036;-71
2024/04/03 06:33:50;;;;;;;5.00;1.52;;;;;;;;;;5089661;28;20059;-69
2024/04/03 06:36:17;;;;;;;2.05;1.13;;;;;;;;;;5069644;28;20132;-71
2024/04/03 06:38:43;;;;;;;8.88;1.10;;;;;;;;;;5059347;28;20027;-70
2024/04/03 06:41:09;;;;;;;4.65;1.10;;;;;;;;;;5062624;28;20070;-70
2024/04/03 06:43:34;;;;;;;3.50;1.13;;;;;;;;;;5075721;28;20543;-70
2024/04/03 06:46:00;;;;;;;3.33;1.30;;;;;;;;;;5065836;28;20491;-71
2024/04/03 06:48:26;;;;;;;3.17;0.73;;;;;;;;;;5069819;28;20051;-71
2024/04/03 06:50:53;;;;;;;2.40;0.70;;;;;;;;;;5080298;28;20496;-70
2024/04/03 06:53:20;;;;;;;1.85;0.90;;;;;;;;;;5060344;28;20040;-71
2024/04/03 06:56:01;;;;;;;6.93;1.40;;;;;;;;;;5066129;28;20039;-70
2024/04/03 06:58:38;;;;;;;5.35;0.85;;;;;;;;;;5072617;28;20793;-68
2024/04/03 07:01:04;;;;;;;2.88;0.82;;;;;;;;;;5080231;28;20035;-69
2024/04/03 07:03:32;;;;;;;2.95;0.80;;;;;;;;;;5068814;28;20039;-70
2024/04/03 07:05:59;;;;;;;5.53;1.35;;;;;;;;;;5080537;28;20025;-69
2024/04/03 07:08:25;;;;;;;0.93;0.70;;;;;;;;;;5072112;28;20080;-69
2024/04/03 07:10:55;;;;;;;4.15;0.90;;;;;;;;;;5056720;28;20059;-71
2024/04/03 07:13:22;;;;;;;5.32;1.10;;;;;;;;;;5069540;28;20036;-68
2024/04/03 07:15:48;;;;;;;5.22;1.40;;;;;;;;;;5074619;28;20085;-69
2024/04/03 07:18:15;;;;;;;2.53;0.82;;;;;;;;;;5069463;28;20031;-71
2024/04/03 07:20:42;;;;;;;6.63;1.55;;;;;;;;;;5080538;28;20272;-70
2024/04/03 07:23:08;;;;;;;2.30;0.85;;;;;;;;;;5060844;28;20047;-70
2024/04/03 07:25:35;;;;;;;2.50;1.00;;;;;;;;;;5045496;28;20036;-70
2024/04/03 07:28:12;;;;;;;5.78;0.90;;;;;;;;;;5065349;28;20171;-70
2024/04/03 07:30:42;;;;;;;3.85;1.08;;;;;;;;;;5082185;28;20024;-70
2024/04/03 07:33:09;;;;;;;8.70;1.27;;;;;;;;;;5076386;28;20039;-68
2024/04/03 07:35:35;;;;;;;1.17;0.60;;;;;;;;;;5069643;28;20035;-71
2024/04/03 07:38:04;;;;;;;3.85;1.90;;;;;;;;;;5062731;28;20377;-68
2024/04/03 07:40:29;;;;;;;4.93;1.35;;;;;;;;;;5079862;28;20036;-70
2024/04/03 07:42:55;;;;;;;2.58;1.02;;;;;;;;;;5066287;28;20028;-71
2024/04/03 07:45:22;;;;;;;2.53;0.95;;;;;;;;;;5066533;28;20033;-70
2024/04/03 07:47:49;;;;;;;2.15;1.17;;;;;;;;;;5066332;28;20036;-70
2024/04/03 07:50:15;;;;;;;5.65;1.35;;;;;;;;;;5047222;28;20365;-69
2024/04/03 07:52:42;;;;;;;1.02;0.65;;;;;;;;;;5084341;28;20043;-75
2024/04/03 07:55:13;;;;;;;1.48;0.60;;;;;;;;;;5086820;28;20043;-73
2024/04/03 07:57:40;;;;;;;1.38;0.77;;;;;;;;;;5066753;28;20081;-70
2024/04/03 08:00:08;;;;;;;3.97;0.90;;;;;;;;;;5046436;28;20032;-70
2024/04/03 08:02:41;;;;;;;3.70;1.05;;;;;;;;;;5048267;28;20042;-70
2024/04/03 08:05:09;;;;;;;5.50;0.90;;;;;;;;;;5069004;28;20024;-71
2024/04/03 08:07:38;;;;;;;3.17;0.95;;;;;;;;;;5079618;28;20024;-73
2024/04/03 08:10:05;;;;;;;3.95;1.08;;;;;;;;;;5078098;28;20127;-74
2024/04/03 08:12:31;;;;;;;3.42;0.80;;;;;;;;;;5070534;28;20776;-72
2024/04/03 08:14:58;;;;;;;4.82;0.93;;;;;;;;;;5089558;28;20036;-71
2024/04/03 08:17:25;;;;;;;2.95;0.68;;;;;;;;;;5052599;28;20036;-71
2024/04/03 08:19:56;;;;;;;2.88;1.10;;;;;;;;;;5067190;28;20138;-72
2024/04/03 08:22:22;;;;;;;3.17;0.75;;;;;;;;;;5072457;28;20032;-71
2024/04/03 08:24:49;;;;;;;5.13;1.23;;;;;;;;;;5073288;28;20193;-71
2024/04/03 08:27:16;;;;;;;2.28;0.63;;;;;;;;;;5088456;28;20039;-72
2024/04/03 08:29:48;;;;;;;4.63;1.20;;;;;;;;;;5057832;28;20032;-78
2024/04/03 08:32:15;;;;;;;4.68;1.00;;;;;;;;;;5075088;28;20136;-73
2024/04/03 08:34:42;;;;;;;4.75;1.08;;;;;;;;;;5073930;28;20035;-72
2024/04/03 08:37:08;;;;;;;5.22;0.77;;;;;;;;;;5090696;28;20028;-72
2024/04/03 08:39:34;;;;;;;4.10;1.25;;;;;;;;;;5089166;28;20032;-71
2024/04/03 08:42:02;;;;;;;1.67;0.82;;;;;;;;;;5080619;28;20119;-73
2024/04/03 08:44:35;;;;;;;8.07;1.50;;;;;;;;;;5095318;28;20032;-73
2024/04/03 08:47:01;;;;;;;25.17;4.03;;;;;;;;;;5060891;28;20032;-72
2024/04/03 08:49:32;;;;;;;3.22;0.85;;;;;;;;;;5075760;28;20100;-75
2024/04/03 08:52:10;;;;;;;3.17;0.60;;;;;;;;;;5064037;28;20059;-73
2024/04/03 08:54:41;;;;;;;4.47;0.90;;;;;;;;;;5075119;28;20036;-74
2024/04/03 08:57:07;;;;;;;5.60;1.98;;;;;;;;;;5072982;28;20055;-72
2024/04/03 08:59:35;;;;;;;2.00;0.73;;;;;;;;;;5075645;28;20117;-74
2024/04/03 09:02:02;;;;;;;5.05;1.02;;;;;;;;;;5091310;28;20451;-74
2024/04/03 09:04:28;;;;;;;9.18;1.08;;;;;;;;;;5080462;28;20035;-72
2024/04/03 09:06:54;;;;;;;3.78;0.75;;;;;;;;;;5079140;28;20368;-73
2024/04/03 09:09:20;;;;;;;4.65;0.80;;;;;;;;;;5091979;28;20864;-72
2024/04/03 09:11:48;;;;;;;2.53;0.93;;;;;;;;;;5085244;28;20020;-73
2024/04/03 09:14:23;;;;;;;4.60;0.90;;;;;;;;;;5095148;28;20016;-75
2024/04/03 09:16:49;;;;;;;7.22;1.02;;;;;;;;;;5084757;28;20055;-72
2024/04/03 09:19:15;;;;;;;4.53;0.85;;;;;;;;;;5058478;28;20388;-72
2024/04/03 09:21:41;;;;;;;4.97;0.70;;;;;;;;;;5076835;28;20028;-74
2024/04/03 09:24:08;;;;;;;1.88;0.88;;;;;;;;;;5073124;28;20358;-75
2024/04/03 09:26:42;;;;;;;2.38;0.77;;;;;;;;;;5058209;28;20123;-71
2024/04/03 09:29:10;;;;;;;4.38;0.93;;;;;;;;;;5091784;28;20020;-75
2024/04/03 09:31:36;;;;;;;2.80;0.88;;;;;;;;;;5083469;28;20052;-71
2024/04/03 09:34:03;;;;;;;8.77;1.17;;;;;;;;;;5088623;28;20147;-72
2024/04/03 09:36:29;;;;;;;1.63;0.98;;;;;;;;;;5061977;28;20096;-73
2024/04/03 09:38:54;;;;;;;4.15;0.68;;;;;;;;;;5094220;28;20351;-73
2024/04/03 09:41:21;;;;;;;3.33;0.73;;;;;;;;;;5093445;28;20031;-73
2024/04/03 09:43:50;;;;;;;3.28;0.60;;;;;;;;;;5092764;28;20093;-74
2024/04/03 09:46:22;;;;;;;4.55;0.80;;;;;;;;;;5096728;28;20488;-73
2024/04/03 09:48:50;;;;;;;3.78;0.85;;;;;;;;;;5095127;28;20396;-73
2024/04/03 09:51:17;;;;;;;2.15;1.00;;;;;;;;;;5094038;28;20357;-73
2024/04/03 09:53:44;;;;;;;4.80;0.98;;;;;;;;;;5076206;28;20118;-74
2024/04/03 09:56:15;;;;;;;8.70;0.95;;;;;;;;;;5075606;28;20095;-72
2024/04/03 09:58:42;;;;;;;2.65;0.70;;;;;;;;;;5075361;28;20115;-71
2024/04/03 10:01:08;;;;;;;3.90;0.75;;;;;;;;;;5085757;28;20456;-72
2024/04/03 10:03:37;;;;;;;2.53;0.80;;;;;;;;;;5069044;28;20051;-69
2024/04/03 10:06:16;;;;;;;3.03;0.93;;;;;;;;;;5095182;28;20020;-73
2024/04/03 10:08:46;;;;;;;2.45;0.90;;;;;;;;;;5089363;28;20024;-73
2024/04/03 10:11:15;;;;;;;4.07;0.68;;;;;;;;;;5087003;28;20101;-73
2024/04/03 10:13:44;;;;;;;4.75;0.90;;;;;;;;;;5107202;28;20102;-76
2024/04/03 10:16:15;;;;;;;3.83;0.93;;;;;;;;;;5098819;28;20496;-73
2024/04/03 10:18:49;;;;;;;1.80;0.93;;;;;;;;;;5072668;28;20046;-74
2024/04/03 10:21:15;;;;;;;3.78;0.85;;;;;;;;;;5083039;28;20227;-70
2024/04/03 10:23:47;;;;;;;4.75;1.42;;;;;;;;;;5068033;28;20032;-71
2024/04/03 10:26:16;;;;;;;5.55;0.95;;;;;;;;;;5098427;28;20023;-70
2024/04/03 10:28:42;;;;;;;4.40;1.10;;;;;;;;;;5083492;28;20120;-73
2024/04/03 10:31:09;;;;;;;3.35;0.70;;;;;;;;;;5084045;28;20031;-73
2024/04/03 10:33:35;;;;;;;3.25;0.70;;;;;;;;;;5069635;28;20361;-73
2024/04/03 10:36:02;;;;;;;1.92;0.60;;;;;;;;;;5085452;28;20600;-71
2024/04/03 10:38:28;;;;;;;2.15;0.52;;;;;;;;;;5081884;28;20063;-74
2024/04/03 10:40:57;;;;;;;11.20;1.33;;;;;;;;;;5097763;28;20111;-75
2024/04/03 10:43:22;;;;;;;2.08;0.65;;;;;;;;;;5070979;28;20028;-73
2024/04/03 10:45:52;;;;;;;1.92;0.80;;;;;;;;;;5076574;28;20147;-73
2024/04/03 10:48:20;;;;;;;4.25;1.00;;;;;;;;;;5090381;28;20024;-74
2024/04/03 10:50:47;;;;;;;2.15;0.73;;;;;;;;;;5085438;28;20128;-71
2024/04/03 10:53:13;;;;;;;7.25;1.33;;;;;;;;;;5074071;28;20455;-70
2024/04/03 10:55:40;;;;;;;2.88;0.98;;;;;;;;;;5090226;28;20054;-76
2024/04/03 10:58:08;;;;;;;4.50;0.70;;;;;;;;;;5081920;28;20065;-73
2024/04/03 11:00:41;;;;;;;2.83;1.13;;;;;;;;;;5090703;28;20054;-75
2024/04/03 11:03:09;;;;;;;2.65;0.60;;;;;;;;;;5076024;28;20020;-71
2024/04/03 11:05:36;;;;;;;2.42;0.50;;;;;;;;;;5075414;28;20058;-73
2024/04/03 11:08:03;;;;;;;2.40;0.80;;;;;;;;;;5058593;28;20048;-74
2024/04/03 11:10:30;;;;;;;2.45;1.05;;;;;;;;;;5085215;28;20024;-74
2024/04/03 11:13:03;;;;;;;2.38;0.70;;;;;;;;;;5092182;28;20066;-73
2024/04/03 11:15:32;;;;;;;2.53;0.63;;;;;;;;;;5092199;28;20084;-75
2024/04/03 11:17:59;;;;;;;3.58;0.82;;;;;;;;;;5092679;28;20361;-74
2024/04/03 11:20:28;;;;;;;5.22;1.00;;;;;;;;;;5078466;28;20024;-73
2024/04/03 11:23:17;;;;;;;4.25;0.88;;;;;;;;;;5093666;28;20024;-72
2024/04/03 11:25:43;;;;;;;2.78;0.50;;;;;;;;;;5099579;28;20652;-71
2024/04/03 11:28:08;;;;;;;2.80;0.80;;;;;;;;;;5082504;28;20035;-75
2024/04/03 11:30:39;;;;;;;2.53;0.60;;;;;;;;;;5080151;28;20019;-72
2024/04/03 11:33:06;;;;;;;3.30;1.25;;;;;;;;;;5085297;28;20077;-75
2024/04/03 11:35:36;;;;;;;3.40;0.70;;;;;;;;;;5101904;28;20039;-72
2024/04/03 11:38:04;;;;;;;2.67;0.63;;;;;;;;;;5075937;28;20027;-75
2024/04/03 11:40:32;;;;;;;4.38;0.70;;;;;;;;;;5074023;28;20028;-72
2024/04/03 11:42:57;;;;;;;2.95;0.80;;;;;;;;;;5077687;28;20027;-71
2024/04/03 11:45:23;;;;;;;1.30;0.70;;;;;;;;;;5092604;28;20451;-73
2024/04/03 11:47:51;;;;;;;2.00;0.73;;;;;;;;;;5088890;28;20038;-73
2024/04/03 11:50:17;;;;;;;3.70;0.70;;;;;;;;;;5073414;28;20038;-69
2024/04/03 11:52:44;;;;;;;1.92;0.70;;;;;;;;;;5072842;28;20028;-72
2024/04/03 11:55:13;;;;;;;3.45;0.68;;;;;;;;;;5057067;28;20424;-76
2024/04/03 11:57:39;;;;;;;0.50;0.40;;;;;;;;;;5076711;28;20059;-75
2024/04/03 12:00:11;;;;;;;7.40;0.90;;;;;;;;;;5074427;28;20020;-71
2024/04/03 12:02:37;;;;;;;2.78;0.70;;;;;;;;;;5068707;28;20100;-72
2024/04/03 12:05:03;;;;;;;3.03;0.80;;;;;;;;;;5054267;28;20024;-73
2024/04/03 12:07:29;;;;;;;2.70;0.52;;;;;;;;;;5073645;28;20390;-71
2024/04/03 12:09:55;;;;;;;2.50;0.70;;;;;;;;;;5091571;28;20016;-72
2024/04/03 12:12:21;;;;;;;2.72;0.60;;;;;;;;;;5093589;28;20047;-74
2024/04/03 12:14:47;;;;;;;1.35;0.55;;;;;;;;;;5067313;28;20054;-72
2024/04/03 12:17:14;;;;;;;3.40;0.82;;;;;;;;;;5086848;28;20460;-71
2024/04/03 12:20:04;;;;;;;2.33;0.90;;;;;;;;;;5089487;28;20050;-74
2024/04/03 12:22:30;;;;;;;4.88;1.33;;;;;;;;;;5088506;28;20023;-72
2024/04/03 12:24:56;;;;;;;3.78;1.52;;;;;;;;;;5091961;28;20480;-74
2024/04/03 12:27:25;;;;;;;2.33;0.88;;;;;;;;;;5090382;28;20066;-70
2024/04/03 12:29:57;;;;;;;5.47;1.10;;;;;;;;;;5071537;28;20108;-76
2024/04/03 12:32:24;;;;;;;1.80;1.00;;;;;;;;;;5081628;28;20032;-73
2024/04/03 12:34:49;;;;;;;9.38;0.93;;;;;;;;;;5070890;28;20088;-74
2024/04/03 12:37:18;;;;;;;3.10;0.90;;;;;;;;;;5078586;28;20032;-73
2024/04/03 12:39:44;;;;;;;2.42;0.90;;;;;;;;;;5052550;28;20035;-74
2024/04/03 12:42:13;;;;;;;1.45;0.50;;;;;;;;;;5087688;28;20068;-73
2024/04/03 12:44:38;;;;;;;2.83;0.77;;;;;;;;;;5069554;28;20037;-71
2024/04/03 12:47:07;;;;;;;1.45;1.10;;;;;;;;;;5076360;28;20028;-69
2024/04/03 12:49:35;;;;;;;4.68;1.15;;;;;;;;;;5070000;28;20034;-72
2024/04/03 12:52:01;;;;;;;2.25;0.90;;;;;;;;;;5076301;28;20024;-73
2024/04/03 12:54:28;;;;;;;2.65;1.35;;;;;;;;;;5069844;28;20024;-73
2024/04/03 12:56:55;;;;;;;4.93;1.33;;;;;;;;;;5066930;28;20028;-75
2024/04/03 12:59:20;;;;;;;3.30;0.88;;;;;;;;;;5104658;28;20027;-72
2024/04/03 13:01:46;;;;;;;3.97;0.93;;;;;;;;;;5088719;28;20057;-72
2024/04/03 13:04:12;;;;;;;1.20;0.60;;;;;;;;;;5069995;28;20028;-73
2024/04/03 13:06:38;;;;;;;1.75;0.60;;;;;;;;;;5080896;28;20416;-75
2024/04/03 13:09:11;;;;;;;3.97;0.70;;;;;;;;;;5073867;28;20028;-75
2024/04/03 13:11:43;;;;;;;4.22;1.00;;;;;;;;;;5089315;28;20491;-72
2024/04/03 13:14:10;;;;;;;5.87;1.17;;;;;;;;;;5058082;28;20055;-76
2024/04/03 13:16:38;;;;;;;8.57;1.20;;;;;;;;;;5075348;28;20369;-68
2024/04/03 13:19:06;;;;;;;1.85;0.68;;;;;;;;;;5071323;28;20075;-73
2024/04/03 13:21:33;;;;;;;1.73;0.63;;;;;;;;;;5065817;28;20891;-70
2024/04/03 13:23:59;;;;;;;3.55;0.60;;;;;;;;;;5065812;28;20078;-69
2024/04/03 13:26:24;;;;;;;1.05;0.50;;;;;;;;;;5069506;28;20047;-69
2024/04/03 13:28:50;;;;;;;3.05;0.85;;;;;;;;;;5070781;28;20024;-69
2024/04/03 13:31:15;;;;;;;1.55;0.55;;;;;;;;;;5090984;28;20048;-70
2024/04/03 13:33:41;;;;;;;1.75;0.52;;;;;;;;;;5088433;28;20024;-70
2024/04/03 13:36:08;;;;;;;11.20;0.90;;;;;;;;;;5085448;28;20067;-70
2024/04/03 13:38:36;;;;;;;2.20;0.50;;;;;;;;;;5090886;28;20396;-68
2024/04/03 13:41:02;;;;;;;2.50;0.70;;;;;;;;;;5083518;28;20394;-71
2024/04/03 13:43:28;;;;;;;4.82;1.25;;;;;;;;;;5070582;28;20122;-71
2024/04/03 13:45:53;;;;;;;2.60;1.38;;;;;;;;;;5070523;28;20506;-70
2024/04/03 13:48:19;;;;;;;1.55;0.40;;;;;;;;;;5090098;28;20028;-71
2024/04/03 13:50:46;;;;;;;2.03;0.43;;;;;;;;;;5086279;28;20077;-69
2024/04/03 13:53:11;;;;;;;4.93;0.95;;;;;;;;;;5061675;28;20074;-69
2024/04/03 13:55:37;;;;;;;1.08;0.60;;;;;;;;;;5075530;28;20035;-71
2024/04/03 13:58:06;;;;;;;2.15;0.88;;;;;;;;;;5071010;28;20066;-71
2024/04/03 14:00:31;;;;;;;1.60;0.60;;;;;;;;;;5070600;28;20515;-69
2024/04/03 14:02:57;;;;;;;1.17;0.57;;;;;;;;;;5073565;28;20035;-71
2024/04/03 14:05:24;;;;;;;2.00;0.55;;;;;;;;;;5072132;28;20053;-69
2024/04/03 14:07:50;;;;;;;1.15;0.57;;;;;;;;;;5072735;28;20047;-67
2024/04/03 14:10:16;;;;;;;2.03;0.52;;;;;;;;;;5098791;28;20426;-68
2024/04/03 14:12:42;;;;;;;3.72;0.63;;;;;;;;;;5089351;28;20043;-69
2024/04/03 14:15:07;;;;;;;5.05;0.30;;;;;;;;;;5067281;28;20032;-68
2024/04/03 14:17:33;;;;;;;1.80;0.35;;;;;;;;;;5071815;28;20098;-69
2024/04/03 14:20:01;;;;;;;0.80;0.25;;;;;;;;;;5051492;28;20485;-69
2024/04/03 14:22:26;;;;;;;2.47;0.45;;;;;;;;;;5065855;28;20275;-69
2024/04/03 14:24:53;;;;;;;2.40;0.75;;;;;;;;;;5090729;28;20020;-70
2024/04/03 14:27:22;;;;;;;0.95;0.40;;;;;;;;;;5091442;28;20427;-69
2024/04/03 14:29:47;;;;;;;1.85;0.70;;;;;;;;;;5073367;28;20103;-68
2024/04/03 14:32:14;;;;;;;1.65;0.40;;;;;;;;;;5073533;28;20115;-69
2024/04/03 14:34:39;;;;;;;1.17;0.50;;;;;;;;;;5090875;28;20054;-68
2024/04/03 14:37:07;;;;;;;4.78;0.90;;;;;;;;;;5089196;28;20032;-69
2024/04/03 14:39:33;;;;;;;2.25;0.55;;;;;;;;;;5081877;28;20491;-70
2024/04/03 14:41:58;;;;;;;0.77;0.50;;;;;;;;;;5074455;28;20152;-69
2024/04/03 14:44:24;;;;;;;3.15;0.60;;;;;;;;;;5090636;28;20031;-69
2024/04/03 14:46:50;;;;;;;4.82;0.90;;;;;;;;;;5075342;28;20131;-71